Wilson, WY

2:34 AM MDT on October 02, 2014 (GMT -0600)
Jackson Hole | Change Station
CLOSE
Current Station
Airport
Location: Jackson,
Elevation: 6450 ft
Nearby Weather Stations

Elev 6450 ft 43.61 °N, 110.74 °W | Updated 19 minutes ago

Partly Cloudy
Partly Cloudy
36 °F
Feels Like 31 °F
N
6
Wind Variable Wind from South

Today
High -- | Low -- °F
--% Chance of Precip.
Yesterday
High -- | Low -- °F
Precip. -- in
7:22 AM 7:02 PM
First Quarter, 56% visible
Pressure 30.19 in
Visibility 10.0 miles
Clouds Few 5000 ft
Windchill 31 °F
Dew Point 30 °F
Humidity 81%
Rainfall 0.00 in
Snow Depth Not available.
UV 0 out of 12
Pollen 5.70 out of 12
Air Quality Not available.
Flu Activity Not available.
METAR KJAC 020815Z AUTO 19005KT 10SM FEW050 02/M01 A3019 RMK AO1

More Conditions Fewer Conditions

Pressure 30.19 in
Visibility 10.0 miles
Clouds Few 5000 ft
Windchill 31 °F
Dew Point 30 °F
Humidity 81%
Rainfall 0.00 in
Snow Depth Not available.
UV 0 out of 12
Pollen 5.70 out of 12
Air Quality Not available.
Flu Activity Not available.
METAR KJAC 020815Z AUTO 19005KT 10SM FEW050 02/M01 A3019 RMK AO1

More Conditions Fewer Conditions

10-Day Weather Forecast

Almanac

Astronomy

Oct. 02, 2014 Rise Set
Actual Time 7:22 AM MDT 7:02 PM MDT
Civil Twilight 6:53 AM MDT 7:31 PM MDT
Nautical Twilight 6:20 AM MDT 8:04 PM MDT
Astronomical Twilight 5:46 AM MDT 8:37 PM MDT
Moon 3:20 PM MDT 12:32 AM MDT
Length of Visible Light 12h 37m
Length of Day
11h 40m
Tomorrow will be 2m 56s shorter.
First Quarter, 56% of the Moon is Illuminated
Today
First Quarter
Oct 8
Full
Oct 15
Last Quarter
Oct 23
New
Oct 30
First Quarter

Today's Extremes

State Highs State Lows

Community

WunderPhotos

Upload Photos

1,758,196 photos uploaded!

WunderBlogs® & News

By Dr. Jeff Masters
Director of Meteorology, Weather Underground
By Kari Strenfel
Meteorologist, Weather Underground
By Christopher C. Burt
Weather Historian, Weather Underground
October 2, 2014
October 2, 2014
October 2, 2014

Nearby

Snow Depth

Station Depth Elevation
Phillips Bench 0 in 8200 ft
Brooklyn Lake 1 in 10220 ft
East Rim Divide 0 in 7930 ft
Thumb Divide 0 in 7980 ft
Battle Mountain 0 in 7440 ft

Earthquake Activity

City Distance Mag. Time & Date
No recent earthquake activity has been reported nearby.
Minimum magnitude displayed is 2.5.

Coastal Water Temperatures

Place Temperature
No Stations Reporting

Nearby Weather Stations